Date,TemperatureHighF,TemperatureAvgF,TemperatureLowF,DewpointHighF,DewpointAvgF,DewpointLowF,HumidityHigh,HumidityAvg,HumidityLow,PressureMaxIn,PressureMinIn,WindSpeedMaxMPH,WindSpeedAvgMPH,GustSpeedMaxMPH,PrecipitationSumIn
2012-1-1,62.8,51.1,36.7,51.5,29.5,15.3,99,47,17,30.34,29.83,18,5,28,0.00
2012-1-2,53.8,42.0,27.1,26.5,14.7,-2.7,76,38,10,30.49,30.34,14,4,21,0.00
2012-1-3,57.0,37.6,20.5,26.4,19.7,9.2,94,56,18,30.39,30.05,9,2,14,0.00
2012-1-4,60.1,41.7,28.6,38.2,31.0,23.5,95,68,40,30.12,30.02,8,1,12,0.00
2012-1-5,70.9,45.7,28.8,42.2,33.4,28.5,100,70,23,30.10,29.85,8,1,11,0.00
2012-1-6,70.0,48.2,30.9,58.4,43.4,30.2,100,85,54,29.85,29.65,10,1,15,0.00
2012-1-7,66.4,54.5,43.0,59.0,51.5,42.7,100,90,70,29.83,29.70,9,2,17,0.00
2012-1-8,55.2,52.2,48.4,50.4,46.9,41.6,97,83,68,29.96,29.81,9,2,16,0.00
2012-1-9,52.0,49.2,45.5,49.7,46.6,45.1,100,91,79,29.98,29.82,8,2,13,0.43
2012-1-10,53.1,48.9,46.6,52.2,48.1,46.3,100,97,89,29.83,29.51,14,2,22,1.12
2012-1-11,70.0,51.3,41.7,46.5,41.3,34.4,99,73,30,29.64,29.42,16,4,27,0.01
2012-1-12,45.7,39.2,34.7,35.8,30.9,27.1,76,72,68,29.77,29.63,19,11,32,0.00
2012-1-13,53.1,35.5,24.6,25.6,16.1,3.4,88,51,13,30.09,29.95,6,2,8,0.00
2012-1-14,64.9,40.8,23.2,34.8,27.7,22.5,97,67,24,30.09,30.00,9,2,12,0.00
2012-1-15,66.2,48.2,27.7,47.7,33.9,27.2,100,64,31,30.13,29.89,8,2,13,0.00
2012-1-16,70.3,66.2,60.4,63.0,59.8,51.4,85,80,72,29.89,29.65,10,4,15,0.00
2012-1-17,69.6,46.6,31.8,64.9,25.7,19.0,88,46,28,30.15,29.65,15,5,22,0.00
2012-1-18,54.9,37.0,24.4,30.4,25.1,21.5,96,67,29,30.16,29.85,9,1,14,0.00
2012-1-19,70.3,46.4,30.0,46.1,36.8,26.4,97,72,39,29.85,29.62,7,1,11,0.00
2012-1-20,79.0,57.2,36.7,64.5,50.8,36.4,100,83,46,29.68,29.43,15,3,25,0.01
2012-1-21,57.0,47.7,38.8,46.7,42.3,37.7,97,82,61,29.85,29.64,9,4,14,0.00
2012-1-22,73.6,52.8,40.5,63.7,46.7,30.2,100,84,23,29.70,29.36,25,6,35,0.01
2012-1-23,67.6,50.3,34.7,43.4,34.9,25.9,91,60,21,29.92,29.66,17,3,23,0.00
2012-1-24,67.8,48.1,30.2,48.2,36.2,29.1,100,71,26,29.98,29.80,14,4,21,0.79
2012-1-25,50.9,48.4,45.9,50.9,48.1,45.6,100,99,97,29.82,29.44,16,4,22,1.89
2012-1-26,56.3,48.1,36.9,50.2,44.6,36.6,100,88,63,29.79,29.58,11,3,17,0.04
2012-1-27,68.0,49.0,30.9,45.3,38.2,30.7,100,72,32,29.87,29.66,14,2,19,0.01
2012-1-28,57.6,45.6,30.2,40.9,24.1,4.6,92,48,13,30.27,29.87,21,3,34,0.00
2012-1-29,63.7,41.8,24.4,35.2,28.5,19.7,100,68,21,30.27,30.08,8,1,11,0.00
2012-1-30,72.0,52.0,30.2,47.5,36.9,23.2,100,64,17,30.09,29.88,10,2,13,0.00
2012-1-31,69.3,62.5,57.2,61.6,57.5,47.5,100,84,60,29.92,29.77,12,3,18,0.00
2012-2-1,72.7,61.5,46.6,63.8,57.0,46.3,100,87,47,29.93,29.80,12,2,21,0.00
2012-2-2,70.0,56.5,41.5,56.5,50.5,41.3,99,82,55,29.97,29.85,12,3,21,0.01
2012-2-3,70.3,62.7,56.1,66.8,61.2,55.0,100,95,79,29.87,29.69,11,4,19,0.71
2012-2-4,61.0,53.3,44.4,60.7,47.9,35.4,100,82,59,30.05,29.75,13,6,22,0.01
2012-2-5,47.8,43.9,41.2,36.0,34.5,32.8,77,69,60,30.18,30.04,11,5,20,0.00
2012-2-6,61.9,46.6,33.3,40.7,37.4,32.5,97,73,43,30.16,29.96,5,1,8,0.00
2012-2-7,57.7,48.5,41.7,47.8,44.3,40.1,100,86,63,30.13,29.99,3,1,4,0.04
2012-2-8,48.2,41.9,36.3,41.6,36.0,33.7,92,80,65,30.26,30.13,6,1,9,0.00
2012-2-9,53.6,42.4,30.0,41.2,37.1,29.8,100,83,61,30.16,29.93,8,2,11,0.00
2012-2-10,58.5,44.3,33.1,48.7,38.2,21.8,100,81,52,30.14,29.86,14,4,22,0.13
2012-2-11,41.0,31.2,25.7,23.7,15.1,8.1,68,52,27,30.43,30.13,10,4,15,0.00
2012-2-12,27.0,26.0,24.4,18.0,16.1,14.9,69,66,63,30.44,30.38,3,1,4,0.00
2012-2-13,40.1,34.1,32.2,34.6,33.8,19.4,100,99,43,30.07,29.67,6,1,10,0.17
2012-2-14,45.3,40.6,34.9,44.8,39.3,34.6,100,95,85,29.84,29.72,8,2,13,0.01
2012-2-15,51.6,49.3,43.7,51.4,49.0,43.4,99,99,99,29.82,29.68,8,2,11,0.21
2012-2-16,65.1,54.2,47.3,51.4,48.8,46.3,100,84,53,30.05,29.82,7,2,10,0.01
2012-2-17,58.5,51.5,46.4,49.5,47.4,45.8,100,87,69,29.99,29.83,8,1,14,0.00
2012-2-18,57.7,49.4,45.3,47.4,45.0,39.5,100,86,55,29.84,29.62,12,2,20,0.35
2012-2-19,67.5,52.5,42.1,49.5,44.0,41.2,100,76,40,29.92,29.78,8,2,13,0.01
2012-2-20,63.5,51.7,39.6,51.3,44.0,35.6,100,77,50,29.92,29.65,25,5,36,0.28
2012-2-21,69.1,52.7,38.3,41.9,34.0,23.7,88,55,19,29.95,29.67,14,2,19,0.00
2012-2-22,77.7,59.5,42.4,59.9,45.0,36.2,99,65,25,29.67,29.33,16,4,24,0.00
2012-2-23,81.3,64.4,43.2,51.7,39.7,31.4,97,48,18,29.57,29.15,18,6,28,0.00
2012-2-24,63.7,51.8,34.5,34.0,20.5,3.4,81,33,10,30.12,29.57,15,6,24,0.00
2012-2-25,68.7,48.0,28.0,38.3,27.4,11.5,100,54,12,30.19,29.96,11,2,16,0.00
2012-2-26,68.9,50.5,30.7,44.0,35.6,25.9,94,61,28,30.00,29.83,11,2,18,0.00
2012-2-27,74.8,59.9,44.4,52.6,46.9,38.0,83,64,41,30.13,29.97,11,1,15,0.00
2012-2-28,72.3,64.1,57.4,66.7,58.0,49.0,91,81,68,30.00,29.64,14,4,24,0.00
2012-2-29,78.1,67.6,45.0,66.7,39.7,15.2,88,47,10,29.75,29.64,15,5,21,0.00
2012-3-1,84.6,62.6,37.4,66.3,46.9,33.0,100,64,20,29.72,29.38,14,3,27,0.00
2012-3-2,73.4,67.2,48.2,67.3,48.9,31.6,87,55,27,29.71,29.30,20,7,26,0.00
2012-3-3,65.7,49.9,36.7,40.0,25.5,5.0,88,47,10,29.88,29.71,15,3,22,0.00
2012-3-4,73.8,52.9,29.8,40.6,27.5,11.9,96,49,10,29.95,29.81,18,4,25,0.00
2012-3-5,78.8,60.3,37.9,46.4,37.3,28.5,94,49,18,30.14,29.94,13,3,20,0.00
2012-3-6,74.8,61.0,41.2,53.7,46.7,37.8,90,61,42,30.05,29.82,14,4,24,0.00
2012-3-7,65.1,64.3,63.3,54.9,54.4,53.7,73,70,67,29.87,29.83,10,5,16,0.00
2012-3-8,70.0,51.4,44.2,69.4,50.1,40.9,100,96,85,30.15,29.74,24,4,30,0.94
2012-3-9,63.0,49.7,40.3,40.9,31.3,20.3,88,53,24,30.27,30.13,13,3,21,0.00
2012-3-10,67.6,54.3,38.8,49.4,36.0,26.1,94,56,22,30.18,29.92,15,3,22,0.14
2012-3-11,62.8,55.3,49.3,62.3,54.6,47.3,100,98,86,29.95,29.69,7,2,13,1.58
2012-3-12,83.5,64.7,54.7,60.7,55.7,50.0,100,78,32,29.84,29.75,9,2,16,0.01
2012-3-13,82.2,65.8,50.2,67.1,59.9,49.9,100,83,55,29.93,29.81,8,1,13,0.00
2012-3-14,83.1,71.4,61.0,67.7,63.8,60.7,100,79,50,29.95,29.83,11,2,18,0.00
2012-3-15,69.3,66.9,64.4,63.7,63.1,61.9,92,88,82,29.88,29.86,2,0,4,0.00
2012-3-16,84.6,73.3,66.2,67.2,64.5,62.0,96,76,49,29.91,29.78,9,2,15,0.00
2012-3-17,84.4,74.3,63.9,66.6,63.5,60.7,100,71,45,29.85,29.74,11,3,16,0.00
2012-3-18,81.1,74.4,67.6,67.1,64.4,62.1,94,72,55,29.83,29.68,9,4,14,0.00
2012-3-19,80.4,74.5,69.6,69.1,66.2,61.8,93,76,57,29.69,29.46,14,6,21,0.02
2012-3-20,64.0,60.0,58.5,60.6,59.2,58.0,100,97,86,29.64,29.45,15,2,25,2.21
2012-3-21,71.4,61.5,54.5,58.4,52.6,43.2,100,76,37,29.66,29.53,9,2,16,0.06
2012-3-22,64.4,56.2,51.6,57.9,53.5,49.9,100,91,73,29.73,29.58,11,3,15,0.38
2012-3-23,75.0,58.1,42.6,53.4,47.9,42.4,100,74,34,29.81,29.70,16,4,24,0.01
2012-3-24,84.6,63.5,45.3,57.9,50.3,45.1,100,70,28,29.85,29.72,12,2,18,0.00
2012-3-25,90.0,67.8,48.4,61.5,53.3,47.2,100,68,24,29.88,29.75,10,1,13,0.00
2012-3-26,89.4,69.7,50.9,62.5,57.3,50.6,100,71,32,29.89,29.75,9,1,16,0.00
2012-3-27,86.9,70.7,58.3,66.2,60.7,57.3,100,74,39,29.87,29.75,8,2,14,0.00
2012-3-28,84.4,68.8,54.5,65.2,59.2,54.2,100,75,42,29.87,29.72,11,1,16,0.00
2012-3-29,84.9,67.5,54.3,68.6,61.6,54.1,100,84,52,29.74,29.62,10,2,16,0.00
2012-3-30,86.2,70.4,61.5,68.6,64.5,61.3,100,84,48,29.68,29.54,7,1,11,0.00
2012-3-31,91.6,74.5,59.5,72.6,66.5,59.3,99,79,47,29.67,29.54,8,2,13,0.00
2012-4-1,88.9,75.2,62.2,71.3,67.2,62.0,100,79,48,29.59,29.44,10,2,17,0.00
2012-4-2,64.9,63.3,61.9,64.7,63.1,61.6,99,99,99,29.55,29.50,5,1,8,0.28
2012-4-3,75.0,66.6,62.8,70.9,65.9,62.5,100,98,84,29.68,29.52,14,2,30,0.64
2012-4-4,79.7,67.3,59.0,64.8,61.4,56.7,100,83,51,29.64,29.52,12,2,19,0.01
2012-4-5,78.1,64.6,50.0,57.8,53.9,49.7,100,72,39,29.70,29.53,13,3,18,0.00
2012-4-6,82.6,65.1,50.7,62.5,56.5,50.5,100,77,41,29.85,29.70,8,1,16,0.00
2012-4-7,84.9,67.1,51.8,62.9,54.9,45.7,95,67,41,29.99,29.85,7,1,13,0.00
2012-4-8,66.9,62.0,55.8,64.8,61.0,55.3,100,97,86,30.13,29.96,6,0,11,0.21
2012-4-9,84.0,66.2,53.1,64.0,59.1,52.8,100,81,46,30.01,29.83,5,1,8,0.01
2012-4-10,89.6,72.1,58.1,69.5,63.4,57.8,100,78,44,29.90,29.76,9,2,14,0.00
2012-4-11,64.2,62.9,62.1,63.4,62.6,61.6,100,99,97,29.87,29.85,2,0,3,0.00
2012-4-12,71.6,60.5,52.5,55.4,51.0,45.8,94,73,49,29.94,29.78,8,4,11,0.00
2012-4-13,83.5,75.3,58.1,68.4,65.7,51.8,94,73,53,29.81,29.67,8,3,20,0.00
2012-4-14,84.0,74.8,67.8,70.7,66.6,63.1,100,77,57,29.75,29.54,13,4,20,0.00
2012-4-15,81.1,67.7,52.9,72.4,63.8,52.6,100,88,69,29.68,29.50,17,3,23,0.51
2012-4-16,83.1,63.9,51.1,65.2,53.6,45.6,99,75,30,29.96,29.67,6,1,9,0.01
2012-4-17,82.4,65.7,48.6,62.6,52.8,47.7,100,68,31,30.05,29.93,10,2,16,0.00
2012-4-18,84.2,64.8,46.9,56.9,51.0,41.1,100,67,25,30.00,29.79,5,1,10,0.00
2012-4-19,83.5,66.2,48.4,60.6,54.1,47.9,100,71,35,29.81,29.56,8,2,15,0.00
2012-4-20,65.5,58.8,51.3,62.7,55.9,47.2,100,90,64,29.78,29.52,8,2,16,0.28
2012-4-21,81.0,58.4,41.0,50.4,44.6,30.8,100,68,17,29.82,29.71,11,1,15,0.00
2012-4-22,80.2,63.2,46.4,57.8,43.0,17.6,100,58,10,29.94,29.77,18,3,32,0.00
2012-4-23,77.7,59.8,41.5,49.7,43.5,30.3,100,62,18,30.03,29.80,9,1,15,0.00
2012-4-24,86.2,64.9,43.7,58.2,51.1,43.4,100,69,29,29.83,29.59,9,1,17,0.00
2012-4-25,91.6,72.6,52.9,69.9,63.1,52.6,100,75,44,29.63,29.50,8,1,15,0.00
2012-4-26,83.8,73.6,64.4,71.7,68.2,64.1,100,84,62,29.67,29.55,6,1,10,0.00
2012-4-27,87.6,76.1,67.6,71.3,68.0,64.8,100,78,49,29.68,29.51,13,3,22,0.00
2012-4-28,89.4,77.0,68.7,69.5,67.0,65.4,92,73,48,29.69,29.59,8,2,17,0.00
2012-4-29,89.4,76.6,65.7,71.6,67.4,64.0,100,75,45,29.81,29.66,8,2,14,0.00
2012-4-30,90.3,75.3,66.6,75.2,69.8,64.4,100,84,55,29.82,29.68,6,1,14,0.00
2012-5-1,89.8,79.1,68.7,72.7,69.3,66.2,100,74,49,29.76,29.59,9,2,16,0.00
2012-5-2,90.1,76.8,65.1,73.0,69.0,64.9,100,79,50,29.73,29.61,8,1,14,0.00
2012-5-3,94.6,77.4,66.7,76.0,70.9,66.5,100,83,51,29.74,29.64,7,2,13,0.00
2012-5-4,92.8,84.8,74.5,74.6,72.5,69.0,92,68,49,29.73,29.63,5,1,10,0.00
2012-5-5,95.0,81.9,66.6,77.8,70.7,66.3,100,72,42,29.69,29.58,8,1,13,0.00
2012-5-6,95.4,79.4,68.7,77.0,73.0,68.5,100,83,52,29.68,29.58,7,1,11,0.00
2012-5-7,95.4,79.4,68.2,76.3,71.2,65.6,100,79,45,29.69,29.53,11,1,17,0.63
2012-5-8,80.8,70.0,64.6,69.2,66.6,63.9,100,90,58,29.78,29.68,9,1,15,0.17
2012-5-9,65.3,63.9,61.0,64.2,62.9,60.7,100,97,95,29.79,29.76,2,0,4,0.00
2012-5-10,87.3,69.1,51.1,65.4,56.0,50.3,99,70,29,29.76,29.64,6,1,9,0.00
2012-5-11,78.3,67.4,60.8,68.8,60.4,55.6,97,79,61,29.83,29.67,9,3,14,0.07
2012-5-12,72.1,67.4,60.6,65.6,63.9,60.3,100,89,74,29.91,29.81,4,1,8,0.59
2012-5-13,88.0,72.2,57.9,68.1,62.2,56.1,100,75,36,29.92,29.82,9,1,13,0.00
2012-5-14,88.3,71.4,57.4,68.8,62.2,57.1,100,77,41,29.89,29.76,6,1,9,0.00
2012-5-15,89.8,73.9,58.8,69.4,63.0,58.6,99,73,37,29.85,29.75,5,1,8,0.00
2012-5-16,94.8,75.8,58.5,70.0,61.9,54.2,100,69,27,29.85,29.73,6,0,11,0.00
2012-5-17,95.5,75.8,58.1,69.0,62.3,56.0,100,70,29,29.81,29.67,9,1,12,0.00
2012-5-18,93.7,77.2,59.4,70.0,62.9,57.3,100,67,31,29.74,29.63,7,1,13,0.00
2012-5-19,91.8,76.0,59.4,68.6,62.4,57.1,100,68,35,29.78,29.68,9,2,16,0.00
2012-5-20,92.3,72.9,62.1,70.6,64.9,61.8,100,80,39,29.92,29.76,8,1,11,0.00
2012-5-21,92.3,69.5,62.4,68.6,57.8,45.7,100,69,21,29.92,29.79,5,1,8,0.00
2012-5-22,92.7,72.2,52.2,64.9,56.2,49.5,100,64,25,29.83,29.62,8,1,14,0.00
2012-5-23,95.4,77.5,60.1,70.2,63.4,57.1,100,65,38,29.63,29.39,10,3,18,0.00
2012-5-24,92.3,80.5,69.6,72.9,69.7,65.5,92,71,51,29.53,29.40,10,3,24,0.00
2012-5-25,95.2,82.7,72.7,75.1,72.2,70.0,93,72,49,29.74,29.53,8,3,15,0.00
2012-5-26,94.1,81.6,68.9,74.6,71.1,66.9,100,73,45,29.85,29.73,8,2,14,0.00
2012-5-27,97.3,81.0,64.6,74.1,66.7,60.9,100,67,32,29.81,29.64,9,1,18,0.00
2012-5-28,98.1,81.9,66.2,72.6,66.7,58.6,100,65,30,29.72,29.57,8,1,14,0.00
2012-5-29,101.8,83.9,68.0,71.8,67.1,60.4,95,62,27,29.69,29.55,7,1,11,0.00
2012-5-30,97.0,83.6,66.4,71.3,67.9,62.0,99,62,35,29.75,29.48,18,2,27,0.13
2012-5-31,89.6,75.6,66.6,71.2,64.4,52.7,100,72,36,29.71,29.47,13,2,23,0.59
2012-6-1,88.0,70.6,57.2,59.1,52.5,44.0,93,57,25,29.78,29.69,9,1,11,0.01
2012-6-2,98.1,76.2,58.1,75.5,66.0,56.2,100,73,46,29.75,29.58,10,1,14,0.00
2012-6-3,99.0,83.0,69.6,78.2,73.6,69.4,100,76,42,29.70,29.57,7,1,12,0.00
2012-6-4,97.0,82.5,72.9,76.8,73.6,68.1,100,77,43,29.73,29.55,9,1,17,0.00
2012-6-5,106.5,85.5,66.9,76.7,69.9,59.7,100,67,23,29.67,29.45,19,2,28,0.90
2012-6-6,89.1,76.8,67.6,70.0,66.0,57.7,100,73,36,29.74,29.58,12,2,19,0.13
2012-6-7,90.5,76.2,67.1,67.6,61.6,57.8,92,62,35,29.81,29.68,10,2,16,0.00
2012-6-8,95.0,78.7,62.2,67.7,62.1,57.5,94,61,30,29.81,29.62,8,1,13,0.00
2012-6-9,95.9,81.1,67.1,74.2,68.6,63.7,97,68,42,29.67,29.50,8,2,12,0.00
2012-6-10,96.6,83.3,71.1,76.9,72.7,68.3,100,73,45,29.61,29.51,9,2,17,0.00
2012-6-11,102.6,86.8,72.0,80.7,76.5,71.7,100,74,44,29.70,29.57,8,1,14,0.00
2012-6-12,96.4,84.7,69.1,79.1,71.8,66.3,100,68,40,29.91,29.68,22,1,32,0.61
2012-6-13,92.8,79.5,69.8,76.8,71.0,64.9,100,78,43,29.85,29.69,8,1,14,0.00
2012-6-14,75.4,73.5,70.9,69.9,67.5,65.8,84,81,80,29.74,29.71,3,1,7,0.00
2012-6-15,95.7,83.7,70.9,78.5,72.4,67.2,100,70,46,29.83,29.70,13,2,21,0.00
2012-6-16,96.4,78.0,69.8,81.2,73.1,69.5,100,87,44,29.88,29.77,14,1,24,0.67
2012-6-17,96.8,81.7,68.7,78.7,72.2,68.5,100,76,43,29.84,29.63,6,1,13,0.01
2012-6-18,95.9,82.4,68.7,76.6,72.9,68.5,100,75,47,29.67,29.57,9,2,20,0.00
2012-6-19,92.1,80.5,73.2,78.6,74.2,72.4,100,82,58,29.75,29.66,11,2,19,0.00
2012-6-20,95.2,81.6,69.3,76.0,71.4,65.2,100,75,40,29.80,29.71,9,2,15,0.00
2012-6-21,99.9,83.1,64.2,75.0,68.8,63.9,100,67,35,29.85,29.68,8,1,12,0.00
2012-6-22,102.0,86.0,71.2,78.1,73.0,68.5,100,70,36,29.75,29.61,8,1,11,0.00
2012-6-23,99.9,85.6,70.5,76.5,70.7,62.8,100,66,30,29.74,29.63,8,1,11,0.00
2012-6-24,106.5,87.0,67.5,76.5,69.4,60.2,100,64,23,29.75,29.62,7,0,10,0.00
2012-6-25,111.6,90.0,70.2,78.2,71.1,63.8,100,61,22,29.69,29.50,8,1,11,0.00
2012-6-26,103.6,90.1,74.3,76.2,73.0,70.3,94,60,37,29.62,29.51,10,2,14,0.00
2012-6-27,105.8,85.2,64.2,70.9,58.9,36.8,85,48,10,29.75,29.61,7,1,10,0.00
2012-6-28,106.5,85.7,64.2,73.1,67.5,61.9,100,61,28,29.83,29.72,9,1,13,0.00
2012-6-29,103.8,87.2,68.7,77.2,69.9,62.4,100,63,27,29.80,29.64,8,1,14,0.00
2012-6-30,104.7,86.8,68.5,76.1,70.3,65.1,100,64,31,29.72,29.61,8,1,14,0.00
2012-7-1,99.1,83.2,68.5,75.6,70.6,64.7,100,68,39,29.80,29.68,8,1,22,0.00
2012-7-2,98.1,81.9,70.7,78.9,73.7,70.4,100,79,42,29.89,29.75,7,1,13,0.01
2012-7-3,102.2,86.5,71.8,78.5,69.7,59.7,100,64,26,29.84,29.68,10,1,14,0.00
2012-7-4,103.1,85.3,67.5,76.9,69.1,59.3,100,65,26,29.81,29.69,8,1,14,0.00
2012-7-5,104.2,86.4,68.4,76.1,70.4,66.4,100,65,31,29.84,29.70,8,1,15,0.00
2012-7-6,107.6,89.1,70.7,77.1,69.9,63.1,100,59,25,29.82,29.67,9,1,15,0.00
2012-7-7,93.6,81.2,70.5,80.0,73.5,65.4,100,79,46,29.88,29.69,11,1,15,0.43
2012-7-8,103.6,82.7,73.2,81.0,74.3,66.5,100,81,34,29.81,29.68,9,1,14,0.09
2012-7-9,99.1,78.6,72.1,80.2,74.8,71.8,100,90,52,29.76,29.61,10,1,18,1.10
2012-7-10,94.1,79.1,71.6,81.2,75.1,71.3,100,89,57,29.74,29.63,8,1,13,0.39
2012-7-11,98.6,82.5,71.2,82.5,74.8,71.0,100,80,47,29.75,29.63,9,1,14,0.01
2012-7-12,74.7,73.0,72.1,74.4,72.7,71.9,99,99,99,29.72,29.70,1,0,3,0.00
2012-7-18,104.0,87.5,71.4,78.3,73.7,70.8,100,68,36,29.81,29.67,4,1,8,0.00
2012-7-19,107.2,90.9,75.0,77.1,72.0,67.2,100,59,28,29.85,29.68,8,2,11,0.00
2012-7-20,110.8,90.1,75.2,78.7,73.0,65.5,96,62,27,29.78,29.61,8,1,12,0.00
2012-7-21,106.0,91.4,74.1,79.1,72.9,67.2,89,58,29,29.73,29.62,6,2,11,0.00
2012-7-22,102.2,88.3,75.7,78.3,74.7,70.2,100,68,37,29.82,29.72,6,2,10,0.00
2012-7-23,99.0,86.5,75.0,78.2,75.2,70.8,99,72,43,29.90,29.78,7,2,9,0.00
2012-7-24,102.4,84.3,72.3,78.2,73.3,70.5,100,71,38,29.87,29.69,5,0,11,0.00
2012-7-25,103.5,88.6,72.7,79.1,73.3,69.0,100,65,35,29.76,29.59,9,2,15,0.00
2012-7-26,104.9,89.4,73.8,79.1,74.3,71.2,100,64,36,29.73,29.55,17,3,24,0.18
2012-7-27,103.1,79.7,71.8,80.3,76.4,71.5,100,91,41,29.81,29.70,8,1,12,0.40
2012-7-28,109.8,90.7,73.8,82.9,75.1,66.2,100,67,27,29.86,29.72,8,1,11,0.00
2012-7-29,110.5,91.6,74.8,80.9,74.2,65.2,100,64,24,29.84,29.67,8,1,11,0.00
2012-7-30,110.1,90.2,73.9,81.5,73.1,58.6,100,65,20,29.77,29.63,12,2,17,0.00
2012-7-31,108.3,88.8,72.1,78.9,73.3,61.7,100,67,23,29.76,29.64,9,1,13,0.00
2012-8-1,106.0,88.8,73.4,78.3,73.6,67.8,100,66,31,29.73,29.56,7,1,14,0.00
2012-8-2,104.7,89.8,73.4,76.5,71.8,66.2,100,60,31,29.66,29.53,8,2,14,0.00
2012-8-3,104.5,89.1,70.5,75.6,71.0,68.3,100,59,35,29.67,29.55,9,2,16,0.00
2012-8-4,105.1,90.4,75.0,79.1,72.0,65.6,97,59,30,29.77,29.61,8,1,14,0.00
2012-8-5,109.4,89.4,73.9,78.3,73.4,68.7,100,64,28,29.89,29.74,8,1,14,0.00
2012-8-6,106.3,85.7,74.7,79.3,75.7,73.2,100,75,36,29.89,29.67,8,1,13,0.19
2012-8-7,107.6,86.7,73.4,78.9,74.4,68.2,100,73,29,29.76,29.63,10,1,14,0.00
2012-8-8,102.6,83.9,71.8,77.5,72.9,68.6,100,74,37,29.77,29.67,9,2,13,0.21
2012-8-9,103.3,84.9,70.0,77.9,74.0,69.7,99,74,40,29.72,29.52,8,2,9,0.01
2012-8-10,102.2,96.1,71.2,77.0,56.7,47.2,100,32,16,29.68,29.59,4,1,11,0.00
2012-8-11,96.6,79.6,62.6,66.3,61.0,57.2,92,58,27,29.79,29.67,7,2,13,0.00
2012-8-12,103.5,92.9,68.4,76.4,73.9,63.6,93,56,39,29.79,29.60,7,2,14,0.00
2012-8-13,104.5,86.6,72.7,76.0,62.1,33.9,100,56,10,29.73,29.61,14,2,21,0.00
2012-8-14,102.6,81.9,62.6,73.3,63.7,58.9,100,60,26,29.79,29.60,15,1,22,0.25
2012-8-15,97.0,83.7,70.7,76.6,73.4,70.4,99,74,49,29.74,29.63,8,2,12,0.01
2012-8-16,98.1,83.2,72.9,79.2,73.1,68.3,100,75,43,29.79,29.66,13,2,19,0.00
2012-8-17,123.6,83.9,-12.3,99.9,73.0,-37.2,100,74,10,29.80,29.59,100,2,100,0.02
2012-8-18,76.1,71.2,68.0,74.0,70.8,67.7,100,99,92,29.76,29.50,8,1,11,0.53
2012-8-19,96.4,77.4,64.0,76.4,67.8,63.6,100,77,37,29.73,29.61,9,1,17,0.02
2012-8-20,97.0,78.5,62.1,76.1,63.2,53.1,100,67,25,29.77,29.67,8,1,11,0.01
2012-8-21,96.3,78.4,65.3,69.8,64.5,57.2,100,68,30,29.85,29.75,7,1,12,0.00
2012-8-22,100.2,79.4,51.8,73.9,61.4,41.2,100,63,18,29.91,29.77,8,1,13,0.00
2012-8-23,97.0,78.4,58.6,69.1,60.3,52.6,100,61,24,29.88,29.73,8,1,13,0.00
2012-8-24,97.0,79.4,63.9,74.6,67.7,28.9,94,70,41,29.78,29.62,103,3,103,0.00
2012-8-25,95.9,84.3,76.3,76.9,73.5,67.9,100,73,46,29.74,29.62,9,3,18,0.00
2012-8-26,99.7,80.9,72.7,80.1,74.4,71.0,100,82,43,29.84,29.72,11,2,17,0.06
2012-8-27,99.0,83.1,72.1,81.2,74.0,70.8,100,77,42,29.83,29.68,8,1,15,0.00
2012-8-28,103.5,86.1,73.0,78.1,68.2,54.1,100,62,21,29.77,29.62,10,2,20,0.00
2012-8-29,102.0,87.3,71.2,68.2,63.5,56.3,65,47,29,29.68,29.51,13,2,21,0.00
2012-8-30,97.5,84.6,77.4,73.4,69.0,66.0,85,61,37,29.57,29.41,51,3,51,0.00
2012-8-31,100.9,85.4,74.3,87.8,72.2,66.9,100,69,34,29.71,29.43,19,4,25,0.02
2012-9-1,104.0,86.6,72.9,79.5,73.8,70.0,100,71,35,29.81,29.65,100,2,100,0.15
2012-9-2,108.0,88.5,71.6,81.0,73.0,66.7,100,66,28,29.77,29.61,14,2,19,0.00
2012-9-3,108.3,90.2,71.1,80.1,71.6,65.8,100,60,27,29.74,29.59,13,2,18,0.00
2012-9-4,109.6,89.5,70.5,79.1,71.2,34.3,100,61,10,29.70,29.55,11,1,15,0.00
2012-9-5,108.7,88.7,70.3,77.3,69.9,61.7,100,61,23,29.66,29.52,11,1,15,0.00
2012-9-6,112.1,89.8,70.3,78.0,67.1,55.2,100,55,17,29.69,29.56,11,1,14,0.00
2012-9-7,109.0,91.0,72.7,76.6,69.1,62.1,95,55,23,29.67,29.47,9,2,14,0.15
2012-9-8,92.5,78.2,60.4,74.9,55.8,44.3,100,53,21,29.85,29.62,8,1,14,0.53
2012-9-9,100.6,74.1,52.7,63.4,52.5,34.1,100,59,10,29.92,29.77,6,1,10,0.00
2012-9-10,102.2,78.2,54.5,64.3,54.8,40.3,100,56,13,29.92,29.76,7,1,11,0.00
2012-9-11,94.8,77.5,60.1,66.2,60.2,52.3,100,61,24,29.92,29.77,10,2,17,0.00
2012-9-12,96.3,81.5,59.5,66.8,62.9,58.0,100,57,30,29.90,29.75,11,3,17,0.00
2012-9-13,86.4,75.4,69.3,75.3,69.1,64.6,100,82,56,29.94,29.82,10,2,15,0.07
2012-9-14,84.9,75.7,70.0,76.7,71.3,68.0,100,87,66,29.96,29.88,9,2,14,0.00
2012-9-15,85.8,72.7,66.9,74.8,69.6,66.5,100,90,62,29.94,29.83,8,1,10,0.02
2012-9-16,77.0,69.3,65.3,74.9,68.3,65.0,100,97,80,29.85,29.75,7,1,10,0.08
2012-9-17,86.9,71.8,65.1,72.1,67.9,64.9,100,89,54,29.76,29.56,8,1,12,0.11
2012-9-18,89.1,72.2,53.6,70.4,56.2,30.1,100,67,13,29.87,29.62,8,1,11,0.00
2012-9-19,81.1,57.7,47.7,60.2,51.2,47.4,100,83,32,29.95,29.86,8,1,11,0.00
2012-9-20,94.5,81.8,63.3,60.5,57.7,54.0,86,49,27,29.79,29.71,7,1,12,0.00
2012-9-21,97.7,76.2,57.0,68.2,59.7,53.4,100,64,24,29.78,29.66,10,1,16,0.00
2012-9-22,101.3,77.9,58.1,69.9,60.6,54.1,100,62,22,29.86,29.71,6,1,8,0.00
2012-9-23,88.7,74.5,65.3,65.8,56.6,33.2,97,58,26,30.01,29.86,13,4,20,0.00
2012-9-24,95.4,74.4,60.1,68.0,57.2,49.6,78,57,35,29.96,29.73,9,3,13,0.00
2012-9-25,97.5,83.2,66.9,73.3,66.0,54.7,100,62,24,29.79,29.66,12,3,27,0.00
2012-9-26,97.7,82.7,72.3,73.8,68.3,62.8,90,65,33,29.81,29.72,11,2,16,0.00
2012-9-27,96.3,78.9,68.4,73.3,68.8,64.5,100,74,39,29.89,29.74,14,2,25,0.00
2012-9-28,95.5,78.3,66.7,72.4,67.5,63.0,100,73,37,29.87,29.73,5,1,8,0.00
2012-9-29,75.6,71.7,66.9,73.6,70.4,66.7,100,96,81,29.78,29.66,6,2,11,0.35
2012-9-30,73.4,65.0,61.2,66.8,63.0,60.9,100,94,71,29.69,29.58,7,1,11,0.38
2012-10-1,88.7,71.6,62.2,63.3,57.2,46.6,100,66,27,29.59,29.48,12,2,19,0.00
2012-10-2,84.4,70.6,60.8,69.3,57.6,51.1,91,66,33,29.71,29.57,8,1,11,0.00
2012-10-3,87.3,70.5,58.3,66.9,58.8,21.7,100,72,33,29.84,29.70,8,1,14,0.00
2012-10-4,91.4,72.7,54.7,88.1,58.1,53.6,100,67,30,29.97,29.83,8,2,14,0.00
2012-10-5,82.6,72.0,60.6,75.2,67.3,56.6,94,85,71,29.87,29.75,14,3,20,0.00
2012-10-6,50.9,47.5,46.0,43.9,41.8,39.1,91,80,67,30.05,29.95,4,1,8,0.02
2012-10-7,64.8,52.9,43.5,48.8,44.0,38.7,92,74,41,30.09,29.95,8,1,10,0.00
2012-10-8,73.4,55.0,37.6,50.5,42.7,37.3,100,69,29,30.05,29.86,8,1,10,0.00
2012-10-9,70.2,55.4,39.4,61.8,51.1,39.1,100,87,63,29.89,29.67,13,2,17,0.00
2012-10-10,62.4,61.9,61.5,60.3,59.9,59.2,94,93,91,29.82,29.80,2,1,4,0.00
2012-10-11,86.5,71.7,61.7,71.3,60.6,49.1,93,69,54,29.96,29.86,5,2,10,0.00
2012-10-12,87.3,73.5,66.4,74.0,69.9,66.1,100,90,60,29.99,29.89,4,1,8,0.25
2012-10-13,87.1,74.4,64.4,72.7,68.6,64.1,99,84,55,29.89,29.60,7,3,12,0.02
2012-10-14,86.4,70.0,55.9,68.7,58.6,50.5,99,73,32,29.83,29.62,15,3,20,0.70
2012-10-15,89.8,66.9,49.1,63.7,51.5,37.6,99,65,16,29.87,29.72,4,0,7,0.00
2012-10-16,78.6,66.3,50.9,61.1,57.0,50.6,100,74,46,29.76,29.49,9,2,14,0.00
2012-10-17,86.9,70.0,57.6,71.7,63.2,54.8,100,81,53,29.52,29.28,10,3,19,0.00
2012-10-18,77.5,63.2,46.9,57.0,37.3,15.1,100,50,10,29.74,29.52,19,4,26,0.00
2012-10-19,76.3,59.9,44.8,42.4,35.2,25.7,82,45,16,29.71,29.62,20,5,29,0.00
2012-10-20,90.1,75.4,42.4,59.5,53.3,39.2,90,49,25,29.67,29.54,8,3,15,0.00
2012-10-21,87.4,75.9,68.7,73.0,67.1,55.3,88,75,53,29.72,29.60,11,3,17,0.00
2012-10-22,85.8,74.8,66.4,73.0,70.0,66.1,100,86,62,29.80,29.69,10,2,15,0.00
2012-10-23,86.9,74.6,64.8,71.8,66.8,64.0,100,79,48,29.78,29.68,9,2,15,0.00
2012-10-24,86.7,72.4,62.8,70.2,66.9,62.5,100,84,54,29.81,29.65,9,2,17,0.00
2012-10-25,83.8,67.7,52.5,73.2,64.6,50.4,100,91,66,29.83,29.61,11,2,17,0.04
2012-10-26,60.3,52.6,41.9,50.4,43.9,36.5,92,73,49,30.07,29.81,8,2,14,0.00
2012-10-27,68.7,48.7,31.8,42.8,32.9,25.1,100,61,20,30.10,29.91,9,1,13,0.00
2012-10-28,70.9,47.1,28.9,43.5,27.3,10.7,100,58,10,30.06,29.95,11,1,13,0.00
2012-10-29,72.0,48.0,29.3,44.0,31.9,26.7,100,62,19,30.12,29.91,9,1,14,0.00
2012-10-30,80.2,52.7,30.6,47.5,38.3,30.3,100,66,21,29.92,29.69,8,1,14,0.00
2012-10-31,88.9,60.1,39.2,53.3,45.5,38.9,100,67,20,29.77,29.69,6,1,10,0.02
2012-11-1,86.4,61.1,41.5,56.6,49.2,41.3,100,71,29,29.85,29.67,8,1,11,0.00
2012-11-2,91.8,67.2,46.9,63.1,54.0,46.7,100,69,29,29.78,29.66,11,1,16,0.00
2012-11-3,86.2,66.0,50.9,68.2,56.6,47.6,100,75,47,29.85,29.72,13,2,16,0.00
2012-11-4,74.8,61.7,54.1,53.1,51.6,49.0,94,71,42,29.96,29.83,8,2,12,0.01
2012-11-5,98.2,59.8,49.3,86.0,47.1,33.5,95,67,22,29.87,29.71,19,3,30,0.00
2012-11-6,71.8,55.1,40.1,46.7,42.0,38.8,100,66,32,29.94,29.79,13,3,17,0.00
2012-11-7,79.3,55.0,36.3,49.3,33.2,20.2,100,57,12,29.95,29.84,14,2,24,0.00
2012-11-8,74.8,56.7,37.6,46.8,41.4,32.3,86,60,32,30.01,29.81,11,4,17,0.00
2012-11-9,83.7,66.1,51.4,63.6,55.5,45.5,92,70,45,29.89,29.73,11,4,21,0.00
2012-11-10,82.2,69.7,57.0,64.8,60.2,56.8,100,74,47,29.87,29.68,13,4,24,0.00
2012-11-11,72.9,62.4,45.5,72.5,59.6,40.6,100,91,77,29.99,29.56,21,4,27,0.24
2012-11-12,66.9,46.2,30.7,41.0,28.6,13.2,90,59,13,30.28,29.99,9,2,14,0.00
2012-11-13,64.8,42.2,24.8,43.0,28.4,19.4,100,67,18,30.33,30.13,8,1,14,0.00
2012-11-14,66.4,40.3,30.6,46.9,33.7,25.7,100,82,22,30.23,30.07,4,0,8,0.00
2012-11-15,71.1,46.3,26.4,39.5,31.7,26.2,100,64,21,30.15,30.03,5,1,9,0.00
2012-11-16,72.7,44.9,27.7,48.3,31.6,23.8,100,69,17,30.21,30.09,8,1,12,0.00
2012-11-17,71.4,46.0,26.2,44.3,31.3,24.4,100,65,18,30.23,30.08,8,1,11,0.00
2012-11-18,72.7,50.9,32.4,42.5,36.1,29.1,100,63,23,30.15,30.00,8,2,14,0.00
2012-11-19,72.5,58.3,47.5,47.3,44.0,39.4,77,61,36,30.06,29.93,8,2,11,0.00
2012-11-23,70.5,57.3,39.6,58.4,36.9,22.1,99,54,19,30.19,29.90,9,3,14,0.07
2012-11-24,64.2,43.2,26.2,32.9,24.6,18.5,87,54,18,30.19,29.93,4,1,7,0.00
2012-11-25,73.2,49.8,26.6,46.3,36.9,25.4,97,67,30,29.93,29.66,7,2,12,0.00
2012-11-26,68.5,57.2,50.2,60.7,53.1,46.0,100,86,76,29.98,29.69,7,2,9,0.00
2012-11-27,64.4,49.7,32.2,47.4,35.4,29.5,90,62,29,30.18,29.99,4,1,8,0.00
2012-11-28,63.5,43.3,25.9,38.1,32.8,25.6,100,72,34,30.27,30.08,6,1,9,0.00
2012-11-29,69.8,49.8,30.7,40.8,33.7,30.0,100,56,24,30.11,29.92,8,2,12,0.00
2012-11-30,70.3,55.6,41.4,59.6,47.9,32.9,94,76,60,29.99,29.85,5,2,9,0.00
2012-12-1,79.0,68.9,61.3,65.9,62.8,59.1,95,81,64,29.88,29.74,11,4,21,0.00
2012-12-2,81.9,70.6,60.4,68.0,64.7,58.1,97,83,55,29.91,29.78,11,3,17,0.00
2012-12-3,81.5,68.7,60.4,68.8,64.6,58.1,100,89,49,29.83,29.70,14,4,21,0.00
2012-12-4,77.0,66.2,44.4,69.0,59.6,42.8,99,81,48,30.03,29.76,10,3,16,0.00
2012-12-5,70.5,55.1,42.6,51.7,45.6,39.4,100,72,49,30.07,29.84,8,2,13,0.00
2012-12-6,61.2,54.3,44.4,54.4,51.7,41.8,100,91,76,29.85,29.64,9,3,14,0.00
2012-12-7,71.8,60.4,51.3,62.1,58.0,51.0,100,92,67,29.67,29.55,7,2,10,0.00
2012-12-8,75.4,63.7,54.5,61.6,56.1,50.5,100,77,49,29.69,29.57,6,2,9,0.00
2012-12-9,79.2,64.8,46.4,69.3,58.5,32.4,100,81,51,29.72,29.50,16,5,23,0.00
2012-12-10,50.9,38.5,26.2,32.4,21.6,16.1,78,52,29,29.92,29.70,14,6,21,0.00
2012-12-11,57.0,32.0,15.4,27.8,17.8,13.5,95,61,21,30.05,29.89,6,1,9,0.00
2012-12-12,59.0,35.2,14.7,30.5,15.7,0.9,95,55,10,30.15,30.02,8,1,11,0.00
2012-12-13,25.0,23.8,21.9,17.0,16.1,14.7,78,72,65,30.12,30.10,0,0,1,0.00
2012-12-20,61.3,46.5,36.0,54.1,20.7,-0.4,77,40,12,30.15,29.42,22,12,34,0.09
2012-12-21,64.6,42.1,24.3,23.0,15.3,4.8,77,41,10,30.24,30.06,9,2,12,0.00
2012-12-22,68.9,45.1,20.8,37.4,25.2,17.6,97,55,15,30.10,29.83,8,1,15,0.00
2012-12-23,71.1,58.8,48.2,57.4,50.0,38.5,92,73,58,29.82,29.56,6,2,10,0.00
2012-12-24,66.9,48.5,37.4,41.0,35.9,32.7,88,65,28,29.78,29.61,7,2,10,0.00
2012-12-25,50.5,39.6,30.9,42.7,36.8,29.4,100,91,58,29.77,29.43,11,3,21,1.85
2012-12-26,41.7,30.1,22.8,31.8,26.6,22.1,100,88,63,30.00,29.78,8,2,11,0.00
2012-12-27,34.7,30.5,22.6,34.1,30.0,22.4,100,98,92,29.96,29.73,9,3,12,0.05
2012-12-28,39.2,36.2,32.2,38.9,35.1,29.3,100,96,80,29.92,29.66,14,4,21,0.24
2012-12-29,49.3,33.8,23.0,29.3,20.9,16.3,93,63,28,30.24,29.91,11,4,17,0.00
2012-12-30,46.0,32.9,17.8,34.2,23.7,16.4,96,72,38,30.29,30.05,6,1,9,0.00
2012-12-31,41.5,40.0,37.4,41.3,36.2,29.4,100,87,67,30.06,29.77,10,2,14,0.34
2013-1-1,45.1,41.1,36.7,44.1,39.0,32.5,100,93,79,30.03,29.81,11,3,15,0.02